sensor_id;sensor_type;location;lat;lon;timestamp;pressure;altitude;pressure_sealevel;temperature;humidity
35507;BME280;36461;52.018;21.036;2023-03-03T00:01:40;100713.42;;;-3.19;84.41
35507;BME280;36461;52.018;21.036;2023-03-03T00:04:08;100709.80;;;-3.15;84.78
35507;BME280;36461;52.018;21.036;2023-03-03T00:06:36;100707.94;;;-3.10;84.84
35507;BME280;36461;52.018;21.036;2023-03-03T00:09:05;100701.11;;;-3.06;84.83
35507;BME280;36461;52.018;21.036;2023-03-03T00:11:33;100700.52;;;-3.03;84.94
35507;BME280;36461;52.018;21.036;2023-03-03T00:14:01;100699.86;;;-3.02;84.67
35507;BME280;36461;52.018;21.036;2023-03-03T00:16:36;100702.06;;;-3.02;84.74
35507;BME280;36461;52.018;21.036;2023-03-03T00:19:17;100699.38;;;-3.01;84.93
35507;BME280;36461;52.018;21.036;2023-03-03T00:21:50;100697.55;;;-3.00;85.26
35507;BME280;36461;52.018;21.036;2023-03-03T00:24:37;100695.25;;;-2.97;85.18
35507;BME280;36461;52.018;21.036;2023-03-03T00:29:56;100684.27;;;-2.97;85.47
35507;BME280;36461;52.018;21.036;2023-03-03T00:32:27;100682.38;;;-2.97;85.78
35507;BME280;36461;52.018;21.036;2023-03-03T00:35:16;100676.95;;;-2.98;85.94
35507;BME280;36461;52.018;21.036;2023-03-03T00:37:46;100675.20;;;-3.00;86.02
35507;BME280;36461;52.018;21.036;2023-03-03T00:42:52;100670.90;;;-3.02;86.32
35507;BME280;36461;52.018;21.036;2023-03-03T00:45:29;100667.81;;;-3.04;86.33
35507;BME280;36461;52.018;21.036;2023-03-03T00:48:06;100666.26;;;-3.05;86.28
35507;BME280;36461;52.018;21.036;2023-03-03T00:50:39;100663.73;;;-3.04;86.48
35507;BME280;36461;52.018;21.036;2023-03-03T00:53:15;100667.30;;;-3.04;86.63
35507;BME280;36461;52.018;21.036;2023-03-03T00:55:45;100664.08;;;-3.04;86.75
35507;BME280;36461;52.018;21.036;2023-03-03T00:58:13;100660.36;;;-3.04;86.59
35507;BME280;36461;52.018;21.036;2023-03-03T01:00:43;100658.52;;;-3.03;86.97
35507;BME280;36461;52.018;21.036;2023-03-03T01:03:16;100655.87;;;-3.01;87.10
35507;BME280;36461;52.018;21.036;2023-03-03T01:05:45;100646.59;;;-3.00;87.34
35507;BME280;36461;52.018;21.036;2023-03-03T01:08:13;100647.29;;;-2.99;87.12
35507;BME280;36461;52.018;21.036;2023-03-03T01:10:47;100645.27;;;-2.98;86.99
35507;BME280;36461;52.018;21.036;2023-03-03T01:13:21;100640.70;;;-2.98;87.17
35507;BME280;36461;52.018;21.036;2023-03-03T01:15:50;100636.65;;;-2.97;87.04
35507;BME280;36461;52.018;21.036;2023-03-03T01:18:19;100631.57;;;-2.97;87.00
35507;BME280;36461;52.018;21.036;2023-03-03T01:20:47;100624.14;;;-2.97;87.27
35507;BME280;36461;52.018;21.036;2023-03-03T01:23:16;100622.76;;;-2.98;87.31
35507;BME280;36461;52.018;21.036;2023-03-03T01:25:44;100615.80;;;-2.98;87.21
35507;BME280;36461;52.018;21.036;2023-03-03T01:28:12;100617.54;;;-2.97;87.46
35507;BME280;36461;52.018;21.036;2023-03-03T01:30:41;100616.09;;;-2.94;87.41
35507;BME280;36461;52.018;21.036;2023-03-03T01:33:09;100611.70;;;-2.93;87.46
35507;BME280;36461;52.018;21.036;2023-03-03T01:35:37;100607.45;;;-2.94;87.40
35507;BME280;36461;52.018;21.036;2023-03-03T01:38:07;100605.08;;;-2.94;87.40
35507;BME280;36461;52.018;21.036;2023-03-03T01:40:36;100607.25;;;-2.95;87.44
35507;BME280;36461;52.018;21.036;2023-03-03T01:43:04;100606.70;;;-2.97;87.26
35507;BME280;36461;52.018;21.036;2023-03-03T01:48:32;100595.98;;;-2.99;87.44
35507;BME280;36461;52.018;21.036;2023-03-03T01:53:57;100596.23;;;-3.02;87.47
35507;BME280;36461;52.018;21.036;2023-03-03T01:56:27;100589.11;;;-3.02;87.60
35507;BME280;36461;52.018;21.036;2023-03-03T01:59:06;100586.88;;;-3.04;87.50
35507;BME280;36461;52.018;21.036;2023-03-03T02:01:36;100585.68;;;-3.04;87.52
35507;BME280;36461;52.018;21.036;2023-03-03T02:04:05;100588.91;;;-3.04;87.44
35507;BME280;36461;52.018;21.036;2023-03-03T02:06:37;100587.35;;;-3.06;87.38
35507;BME280;36461;52.018;21.036;2023-03-03T02:12:07;100584.15;;;-3.05;87.42
35507;BME280;36461;52.018;21.036;2023-03-03T02:14:38;100579.90;;;-3.05;87.48
35507;BME280;36461;52.018;21.036;2023-03-03T02:17:06;100585.77;;;-3.07;87.19
35507;BME280;36461;52.018;21.036;2023-03-03T02:22:10;100583.79;;;-3.13;87.38
35507;BME280;36461;52.018;21.036;2023-03-03T02:24:54;100578.47;;;-3.15;87.21
35507;BME280;36461;52.018;21.036;2023-03-03T02:27:26;100577.58;;;-3.16;87.29
35507;BME280;36461;52.018;21.036;2023-03-03T02:29:57;100579.95;;;-3.16;87.50
35507;BME280;36461;52.018;21.036;2023-03-03T02:32:25;100580.52;;;-3.14;87.56
35507;BME280;36461;52.018;21.036;2023-03-03T02:34:53;100586.10;;;-3.14;87.59
35507;BME280;36461;52.018;21.036;2023-03-03T02:37:22;100587.19;;;-3.11;87.55
35507;BME280;36461;52.018;21.036;2023-03-03T02:39:50;100584.16;;;-3.10;87.47
35507;BME280;36461;52.018;21.036;2023-03-03T02:42:25;100583.35;;;-3.09;87.74
35507;BME280;36461;52.018;21.036;2023-03-03T02:44:57;100577.30;;;-3.07;87.94
35507;BME280;36461;52.018;21.036;2023-03-03T02:47:25;100576.15;;;-3.07;87.77
35507;BME280;36461;52.018;21.036;2023-03-03T02:49:53;100579.24;;;-3.04;87.94
35507;BME280;36461;52.018;21.036;2023-03-03T02:52:21;100576.11;;;-3.01;88.07
35507;BME280;36461;52.018;21.036;2023-03-03T02:54:49;100576.20;;;-2.98;87.78
35507;BME280;36461;52.018;21.036;2023-03-03T02:57:17;100577.80;;;-2.95;87.90
35507;BME280;36461;52.018;21.036;2023-03-03T02:59:45;100571.23;;;-2.94;87.82
35507;BME280;36461;52.018;21.036;2023-03-03T03:02:16;100572.25;;;-2.93;87.87
35507;BME280;36461;52.018;21.036;2023-03-03T03:04:46;100570.54;;;-2.94;87.96
35507;BME280;36461;52.018;21.036;2023-03-03T03:07:16;100576.42;;;-2.95;87.84
35507;BME280;36461;52.018;21.036;2023-03-03T03:09:44;100572.65;;;-2.97;87.87
35507;BME280;36461;52.018;21.036;2023-03-03T03:12:12;100571.21;;;-3.01;87.85
35507;BME280;36461;52.018;21.036;2023-03-03T03:14:43;100567.58;;;-3.04;88.06
35507;BME280;36461;52.018;21.036;2023-03-03T03:17:11;100566.14;;;-3.07;88.05
35507;BME280;36461;52.018;21.036;2023-03-03T03:19:40;100563.50;;;-3.10;88.07
35507;BME280;36461;52.018;21.036;2023-03-03T03:22:08;100560.05;;;-3.14;88.28
35507;BME280;36461;52.018;21.036;2023-03-03T03:24:36;100559.66;;;-3.15;87.99
35507;BME280;36461;52.018;21.036;2023-03-03T03:27:06;100558.09;;;-3.17;88.15
35507;BME280;36461;52.018;21.036;2023-03-03T03:29:35;100558.22;;;-3.18;88.29
35507;BME280;36461;52.018;21.036;2023-03-03T03:32:04;100563.48;;;-3.18;88.51
35507;BME280;36461;52.018;21.036;2023-03-03T03:34:32;100559.91;;;-3.18;88.39
35507;BME280;36461;52.018;21.036;2023-03-03T03:37:00;100564.46;;;-3.19;88.57
35507;BME280;36461;52.018;21.036;2023-03-03T03:39:28;100558.05;;;-3.18;88.90
35507;BME280;36461;52.018;21.036;2023-03-03T03:41:56;100561.08;;;-3.19;88.65
35507;BME280;36461;52.018;21.036;2023-03-03T03:44:24;100563.61;;;-3.19;88.66
35507;BME280;36461;52.018;21.036;2023-03-03T03:46:53;100560.69;;;-3.22;88.64
35507;BME280;36461;52.018;21.036;2023-03-03T03:49:21;100559.00;;;-3.21;88.97
35507;BME280;36461;52.018;21.036;2023-03-03T03:51:50;100564.39;;;-3.22;89.01
35507;BME280;36461;52.018;21.036;2023-03-03T03:54:19;100562.52;;;-3.23;88.95
35507;BME280;36461;52.018;21.036;2023-03-03T03:56:48;100562.88;;;-3.22;89.13
35507;BME280;36461;52.018;21.036;2023-03-03T03:59:16;100561.84;;;-3.22;88.97
35507;BME280;36461;52.018;21.036;2023-03-03T04:01:45;100563.88;;;-3.22;89.19
35507;BME280;36461;52.018;21.036;2023-03-03T04:04:15;100564.92;;;-3.22;89.18
35507;BME280;36461;52.018;21.036;2023-03-03T04:06:44;100567.31;;;-3.21;89.32
35507;BME280;36461;52.018;21.036;2023-03-03T04:09:13;100562.77;;;-3.20;89.74
35507;BME280;36461;52.018;21.036;2023-03-03T04:11:41;100551.80;;;-3.17;89.93
35507;BME280;36461;52.018;21.036;2023-03-03T04:14:10;100544.40;;;-3.16;89.76
35507;BME280;36461;52.018;21.036;2023-03-03T04:16:38;100537.27;;;-3.16;89.83
35507;BME280;36461;52.018;21.036;2023-03-03T04:19:06;100528.80;;;-3.17;89.82
35507;BME280;36461;52.018;21.036;2023-03-03T04:21:36;100525.89;;;-3.18;89.91
35507;BME280;36461;52.018;21.036;2023-03-03T04:24:05;100527.08;;;-3.19;89.67
35507;BME280;36461;52.018;21.036;2023-03-03T04:26:33;100529.90;;;-3.21;89.53
35507;BME280;36461;52.018;21.036;2023-03-03T04:29:02;100528.83;;;-3.23;89.54
35507;BME280;36461;52.018;21.036;2023-03-03T04:31:31;100522.32;;;-3.25;89.32
35507;BME280;36461;52.018;21.036;2023-03-03T04:34:00;100516.84;;;-3.28;89.40
35507;BME280;36461;52.018;21.036;2023-03-03T04:36:28;100514.09;;;-3.30;89.31
35507;BME280;36461;52.018;21.036;2023-03-03T04:38:57;100517.48;;;-3.29;89.46
35507;BME280;36461;52.018;21.036;2023-03-03T04:41:25;100515.70;;;-3.32;89.11
35507;BME280;36461;52.018;21.036;2023-03-03T04:43:54;100510.19;;;-3.36;88.91
35507;BME280;36461;52.018;21.036;2023-03-03T04:46:22;100510.42;;;-3.40;88.91
35507;BME280;36461;52.018;21.036;2023-03-03T04:48:50;100502.77;;;-3.42;88.88
35507;BME280;36461;52.018;21.036;2023-03-03T04:51:20;100503.23;;;-3.43;89.02
35507;BME280;36461;52.018;21.036;2023-03-03T04:53:48;100505.23;;;-3.45;89.00
35507;BME280;36461;52.018;21.036;2023-03-03T04:56:16;100506.73;;;-3.45;88.90
35507;BME280;36461;52.018;21.036;2023-03-03T04:58:45;100505.69;;;-3.47;89.07
35507;BME280;36461;52.018;21.036;2023-03-03T05:01:13;100501.77;;;-3.47;88.87
35507;BME280;36461;52.018;21.036;2023-03-03T05:03:42;100503.10;;;-3.49;89.07
35507;BME280;36461;52.018;21.036;2023-03-03T05:06:12;100499.36;;;-3.49;89.14
35507;BME280;36461;52.018;21.036;2023-03-03T05:08:40;100499.88;;;-3.49;89.20
35507;BME280;36461;52.018;21.036;2023-03-03T05:11:10;100496.95;;;-3.51;89.03
35507;BME280;36461;52.018;21.036;2023-03-03T05:13:39;100492.67;;;-3.53;89.19
35507;BME280;36461;52.018;21.036;2023-03-03T05:16:07;100496.25;;;-3.52;89.19
35507;BME280;36461;52.018;21.036;2023-03-03T05:18:41;100495.55;;;-3.52;89.34
35507;BME280;36461;52.018;21.036;2023-03-03T05:21:11;100501.82;;;-3.52;89.27
35507;BME280;36461;52.018;21.036;2023-03-03T05:23:39;100496.27;;;-3.51;89.20
35507;BME280;36461;52.018;21.036;2023-03-03T05:26:07;100494.06;;;-3.51;89.37
35507;BME280;36461;52.018;21.036;2023-03-03T05:28:35;100492.69;;;-3.52;89.32
35507;BME280;36461;52.018;21.036;2023-03-03T05:31:03;100495.86;;;-3.54;89.25
35507;BME280;36461;52.018;21.036;2023-03-03T05:33:32;100508.55;;;-3.54;89.19
35507;BME280;36461;52.018;21.036;2023-03-03T05:36:00;100504.88;;;-3.52;89.44
35507;BME280;36461;52.018;21.036;2023-03-03T05:38:28;100503.56;;;-3.50;89.44
35507;BME280;36461;52.018;21.036;2023-03-03T05:40:56;100500.88;;;-3.50;89.37
35507;BME280;36461;52.018;21.036;2023-03-03T05:43:24;100503.14;;;-3.47;89.38
35507;BME280;36461;52.018;21.036;2023-03-03T05:45:57;100502.34;;;-3.45;89.40
35507;BME280;36461;52.018;21.036;2023-03-03T05:48:26;100501.41;;;-3.42;89.53
35507;BME280;36461;52.018;21.036;2023-03-03T05:50:58;100503.71;;;-3.38;89.69
35507;BME280;36461;52.018;21.036;2023-03-03T05:53:28;100500.61;;;-3.34;89.37
35507;BME280;36461;52.018;21.036;2023-03-03T05:55:56;100505.98;;;-3.29;89.63
35507;BME280;36461;52.018;21.036;2023-03-03T05:58:25;100505.95;;;-3.24;89.88
35507;BME280;36461;52.018;21.036;2023-03-03T06:00:53;100510.90;;;-3.15;90.05
35507;BME280;36461;52.018;21.036;2023-03-03T06:03:22;100506.79;;;-3.04;90.03
35507;BME280;36461;52.018;21.036;2023-03-03T06:05:50;100504.01;;;-2.93;90.34
35507;BME280;36461;52.018;21.036;2023-03-03T06:08:18;100511.13;;;-2.79;90.62
35507;BME280;36461;52.018;21.036;2023-03-03T06:10:46;100512.18;;;-2.63;90.74
35507;BME280;36461;52.018;21.036;2023-03-03T06:13:15;100507.84;;;-2.45;90.67
35507;BME280;36461;52.018;21.036;2023-03-03T06:15:43;100500.11;;;-2.27;91.06
35507;BME280;36461;52.018;21.036;2023-03-03T06:18:13;100500.51;;;-2.08;91.24
35507;BME280;36461;52.018;21.036;2023-03-03T06:20:42;100499.34;;;-1.91;90.99
35507;BME280;36461;52.018;21.036;2023-03-03T06:23:10;100491.00;;;-1.75;90.95
35507;BME280;36461;52.018;21.036;2023-03-03T06:25:38;100490.75;;;-1.62;91.02
35507;BME280;36461;52.018;21.036;2023-03-03T06:28:06;100489.30;;;-1.49;90.90
35507;BME280;36461;52.018;21.036;2023-03-03T06:30:35;100483.36;;;-1.40;90.42
35507;BME280;36461;52.018;21.036;2023-03-03T06:33:03;100491.70;;;-1.28;90.51
35507;BME280;36461;52.018;21.036;2023-03-03T06:35:31;100498.23;;;-1.14;90.44
35507;BME280;36461;52.018;21.036;2023-03-03T06:37:59;100496.88;;;-1.05;90.03
35507;BME280;36461;52.018;21.036;2023-03-03T06:40:27;100502.40;;;-0.99;89.89
35507;BME280;36461;52.018;21.036;2023-03-03T06:42:56;100499.73;;;-0.87;90.04
35507;BME280;36461;52.018;21.036;2023-03-03T06:45:23;100498.81;;;-0.79;89.62
35507;BME280;36461;52.018;21.036;2023-03-03T06:47:52;100503.58;;;-0.68;89.49
35507;BME280;36461;52.018;21.036;2023-03-03T06:50:20;100501.92;;;-0.54;89.49
35507;BME280;36461;52.018;21.036;2023-03-03T06:52:48;100492.84;;;-0.35;89.76
35507;BME280;36461;52.018;21.036;2023-03-03T06:55:21;100493.74;;;-0.19;89.29
35507;BME280;36461;52.018;21.036;2023-03-03T06:57:49;100498.33;;;-0.07;89.16
35507;BME280;36461;52.018;21.036;2023-03-03T07:00:23;100499.23;;;-0.03;88.84
35507;BME280;36461;52.018;21.036;2023-03-03T07:03:00;100499.98;;;0.02;88.71
35507;BME280;36461;52.018;21.036;2023-03-03T07:05:29;100499.33;;;0.04;88.44
35507;BME280;36461;52.018;21.036;2023-03-03T07:07:57;100499.63;;;0.02;88.15
35507;BME280;36461;52.018;21.036;2023-03-03T07:10:29;100504.98;;;-0.05;88.28
35507;BME280;36461;52.018;21.036;2023-03-03T07:13:13;100503.43;;;-0.07;88.28
35507;BME280;36461;52.018;21.036;2023-03-03T07:15:43;100500.19;;;-0.08;88.00
35507;BME280;36461;52.018;21.036;2023-03-03T07:18:35;100497.59;;;-0.11;88.48
35507;BME280;36461;52.018;21.036;2023-03-03T07:21:15;100502.56;;;-0.09;88.31
35507;BME280;36461;52.018;21.036;2023-03-03T07:23:45;100506.86;;;-0.05;88.15
35507;BME280;36461;52.018;21.036;2023-03-03T07:26:19;100501.67;;;0.02;88.17
35507;BME280;36461;52.018;21.036;2023-03-03T07:28:54;100493.02;;;0.17;88.25
35507;BME280;36461;52.018;21.036;2023-03-03T07:31:29;100483.81;;;0.31;88.28
35507;BME280;36461;52.018;21.036;2023-03-03T07:33:59;100483.77;;;0.42;88.19
35507;BME280;36461;52.018;21.036;2023-03-03T07:36:34;100483.70;;;0.53;87.74
35507;BME280;36461;52.018;21.036;2023-03-03T07:39:24;100486.23;;;0.67;87.89
35507;BME280;36461;52.018;21.036;2023-03-03T07:41:59;100490.22;;;0.74;87.52
35507;BME280;36461;52.018;21.036;2023-03-03T07:44:35;100485.30;;;0.76;87.01
35507;BME280;36461;52.018;21.036;2023-03-03T07:47:18;100488.98;;;0.69;86.85
35507;BME280;36461;52.018;21.036;2023-03-03T07:49:48;100485.98;;;0.60;86.72
35507;BME280;36461;52.018;21.036;2023-03-03T07:52:23;100490.67;;;0.51;86.82
35507;BME280;36461;52.018;21.036;2023-03-03T07:54:56;100487.42;;;0.49;87.05
35507;BME280;36461;52.018;21.036;2023-03-03T07:57:36;100490.93;;;0.59;87.45
35507;BME280;36461;52.018;21.036;2023-03-03T08:02:55;100502.70;;;0.78;87.08
35507;BME280;36461;52.018;21.036;2023-03-03T08:05:39;100507.38;;;0.87;87.33
35507;BME280;36461;52.018;21.036;2023-03-03T08:10:49;100511.59;;;0.99;86.78
35507;BME280;36461;52.018;21.036;2023-03-03T08:13:21;100505.31;;;1.04;86.83
35507;BME280;36461;52.018;21.036;2023-03-03T08:16:19;100511.71;;;1.15;86.88
35507;BME280;36461;52.018;21.036;2023-03-03T08:18:45;100505.52;;;1.28;86.86
35507;BME280;36461;52.018;21.036;2023-03-03T08:21:25;100506.45;;;1.39;86.92
35507;BME280;36461;52.018;21.036;2023-03-03T08:23:53;100511.78;;;1.45;86.63
35507;BME280;36461;52.018;21.036;2023-03-03T08:26:23;100515.42;;;1.55;86.44
35507;BME280;36461;52.018;21.036;2023-03-03T08:28:53;100514.98;;;1.65;86.28
35507;BME280;36461;52.018;21.036;2023-03-03T08:31:22;100516.54;;;1.68;86.02
35507;BME280;36461;52.018;21.036;2023-03-03T08:34:07;100518.30;;;1.76;85.86
35507;BME280;36461;52.018;21.036;2023-03-03T08:36:35;100514.41;;;1.83;85.60
35507;BME280;36461;52.018;21.036;2023-03-03T08:39:04;100518.39;;;1.93;85.28
35507;BME280;36461;52.018;21.036;2023-03-03T08:41:32;100519.80;;;2.02;85.42
35507;BME280;36461;52.018;21.036;2023-03-03T08:44:00;100519.31;;;2.07;85.26
35507;BME280;36461;52.018;21.036;2023-03-03T08:46:28;100517.35;;;2.25;85.51
35507;BME280;36461;52.018;21.036;2023-03-03T08:48:57;100520.98;;;2.39;85.23
35507;BME280;36461;52.018;21.036;2023-03-03T08:51:25;100523.58;;;2.54;84.88
35507;BME280;36461;52.018;21.036;2023-03-03T08:53:53;100529.42;;;2.63;84.62
35507;BME280;36461;52.018;21.036;2023-03-03T08:56:22;100528.24;;;2.69;84.31
35507;BME280;36461;52.018;21.036;2023-03-03T08:58:50;100524.67;;;2.76;84.06
35507;BME280;36461;52.018;21.036;2023-03-03T09:01:33;100514.09;;;2.88;84.11
35507;BME280;36461;52.018;21.036;2023-03-03T09:04:01;100514.28;;;2.96;83.49
35507;BME280;36461;52.018;21.036;2023-03-03T09:06:30;100514.28;;;3.06;83.29
35507;BME280;36461;52.018;21.036;2023-03-03T09:08:57;100513.44;;;3.17;82.75
35507;BME280;36461;52.018;21.036;2023-03-03T09:11:27;100517.70;;;3.34;82.88
35507;BME280;36461;52.018;21.036;2023-03-03T09:14:16;100518.39;;;3.40;82.26
35507;BME280;36461;52.018;21.036;2023-03-03T09:16:50;100518.73;;;3.48;81.81
35507;BME280;36461;52.018;21.036;2023-03-03T09:21:55;100532.59;;;3.43;81.06
35507;BME280;36461;52.018;21.036;2023-03-03T09:24:26;100540.47;;;3.34;81.23
35507;BME280;36461;52.018;21.036;2023-03-03T09:26:55;100548.33;;;3.26;81.41
35507;BME280;36461;52.018;21.036;2023-03-03T09:29:30;100544.39;;;3.20;80.92
35507;BME280;36461;52.018;21.036;2023-03-03T09:35:22;100534.81;;;3.06;80.73
35507;BME280;36461;52.018;21.036;2023-03-03T09:37:50;100527.11;;;2.99;80.41
35507;BME280;36461;52.018;21.036;2023-03-03T09:46:25;100511.98;;;2.61;79.87
35507;BME280;36461;52.018;21.036;2023-03-03T09:49:30;100502.08;;;2.53;80.13
35507;BME280;36461;52.018;21.036;2023-03-03T09:57:42;100495.44;;;2.75;80.49
35507;BME280;36461;52.018;21.036;2023-03-03T10:00:29;100494.78;;;2.86;80.33
35507;BME280;36461;52.018;21.036;2023-03-03T10:05:45;100491.37;;;2.96;80.11
35507;BME280;36461;52.018;21.036;2023-03-03T10:08:39;100486.42;;;2.99;79.54
35507;BME280;36461;52.018;21.036;2023-03-03T10:11:16;100480.09;;;3.02;79.32
35507;BME280;36461;52.018;21.036;2023-03-03T10:16:57;100483.34;;;3.12;79.46
35507;BME280;36461;52.018;21.036;2023-03-03T10:19:37;100482.32;;;3.12;79.08
35507;BME280;36461;52.018;21.036;2023-03-03T10:22:23;100488.83;;;3.11;79.17
35507;BME280;36461;52.018;21.036;2023-03-03T10:30:49;100486.42;;;3.09;78.74
35507;BME280;36461;52.018;21.036;2023-03-03T10:33:57;100487.61;;;3.05;78.60
35507;BME280;36461;52.018;21.036;2023-03-03T10:36:44;100488.13;;;2.93;78.29
35507;BME280;36461;52.018;21.036;2023-03-03T10:39:38;100483.32;;;2.85;78.12
35507;BME280;36461;52.018;21.036;2023-03-03T10:45:10;100480.08;;;2.79;78.38
35507;BME280;36461;52.018;21.036;2023-03-03T10:50:49;100477.52;;;2.89;78.39
35507;BME280;36461;52.018;21.036;2023-03-03T10:56:03;100486.77;;;2.93;77.73
35507;BME280;36461;52.018;21.036;2023-03-03T11:01:52;100479.39;;;2.83;77.84
35507;BME280;36461;52.018;21.036;2023-03-03T11:07:23;100484.52;;;2.80;78.09
35507;BME280;36461;52.018;21.036;2023-03-03T11:10:23;100488.79;;;2.77;77.64
35507;BME280;36461;52.018;21.036;2023-03-03T11:12:57;100488.42;;;2.70;77.88
35507;BME280;36461;52.018;21.036;2023-03-03T11:21:39;100490.75;;;2.40;77.99
35507;BME280;36461;52.018;21.036;2023-03-03T11:26:50;100488.16;;;2.33;78.44
35507;BME280;36461;52.018;21.036;2023-03-03T11:29:31;100494.13;;;2.29;78.24
35507;BME280;36461;52.018;21.036;2023-03-03T11:37:36;100491.18;;;2.15;78.65
35507;BME280;36461;52.018;21.036;2023-03-03T11:40:40;100488.62;;;2.16;78.86
35507;BME280;36461;52.018;21.036;2023-03-03T11:46:17;100481.25;;;2.07;78.51
35507;BME280;36461;52.018;21.036;2023-03-03T11:49:10;100477.84;;;2.10;78.61
35507;BME280;36461;52.018;21.036;2023-03-03T11:54:14;100478.52;;;2.06;78.57
35507;BME280;36461;52.018;21.036;2023-03-03T11:56:46;100477.81;;;2.05;78.46
35507;BME280;36461;52.018;21.036;2023-03-03T11:59:32;100468.57;;;1.97;78.29
35507;BME280;36461;52.018;21.036;2023-03-03T12:02:03;100468.40;;;1.95;78.60
35507;BME280;36461;52.018;21.036;2023-03-03T12:04:49;100463.41;;;1.89;78.36
35507;BME280;36461;52.018;21.036;2023-03-03T12:10:23;100460.54;;;1.95;79.07
35507;BME280;36461;52.018;21.036;2023-03-03T12:13:21;100466.52;;;1.97;78.93
35507;BME280;36461;52.018;21.036;2023-03-03T12:16:12;100472.48;;;1.92;79.09
35507;BME280;36461;52.018;21.036;2023-03-03T12:19:05;100472.29;;;1.89;79.08
35507;BME280;36461;52.018;21.036;2023-03-03T12:35:42;100482.31;;;1.51;79.39
35507;BME280;36461;52.018;21.036;2023-03-03T12:38:34;100475.10;;;1.43;79.47
35507;BME280;36461;52.018;21.036;2023-03-03T12:44:07;100475.94;;;1.41;79.45
35507;BME280;36461;52.018;21.036;2023-03-03T12:55:50;100469.89;;;1.29;79.80
35507;BME280;36461;52.018;21.036;2023-03-03T13:09:37;100479.33;;;1.15;80.08
35507;BME280;36461;52.018;21.036;2023-03-03T13:20:00;100473.77;;;1.03;80.52
35507;BME280;36461;52.018;21.036;2023-03-03T13:22:36;100477.52;;;1.01;80.42
35507;BME280;36461;52.018;21.036;2023-03-03T13:27:53;100480.03;;;0.97;80.23
35507;BME280;36461;52.018;21.036;2023-03-03T13:30:29;100474.39;;;0.95;80.60
35507;BME280;36461;52.018;21.036;2023-03-03T13:36:09;100474.08;;;0.98;80.61
35507;BME280;36461;52.018;21.036;2023-03-03T13:38:40;100471.69;;;0.98;80.59
35507;BME280;36461;52.018;21.036;2023-03-03T13:41:30;100470.52;;;1.00;80.67
35507;BME280;36461;52.018;21.036;2023-03-03T13:44:12;100469.46;;;0.98;80.61
35507;BME280;36461;52.018;21.036;2023-03-03T13:47:10;100470.14;;;0.95;80.49
35507;BME280;36461;52.018;21.036;2023-03-03T13:52:23;100464.44;;;0.85;80.56
35507;BME280;36461;52.018;21.036;2023-03-03T13:56:00;100463.17;;;0.78;80.42
35507;BME280;36461;52.018;21.036;2023-03-03T14:01:20;100458.38;;;0.74;81.19
35507;BME280;36461;52.018;21.036;2023-03-03T14:04:04;100459.38;;;0.74;80.68
35507;BME280;36461;52.018;21.036;2023-03-03T14:06:33;100453.88;;;0.68;80.94
35507;BME280;36461;52.018;21.036;2023-03-03T14:11:53;100448.10;;;0.70;81.27
35507;BME280;36461;52.018;21.036;2023-03-03T14:14:50;100445.56;;;0.71;81.28
35507;BME280;36461;52.018;21.036;2023-03-03T14:17:28;100447.62;;;0.72;81.26
35507;BME280;36461;52.018;21.036;2023-03-03T14:22:52;100443.41;;;0.77;81.69
35507;BME280;36461;52.018;21.036;2023-03-03T14:25:21;100446.34;;;0.81;81.49
35507;BME280;36461;52.018;21.036;2023-03-03T14:33:13;100440.91;;;0.65;81.38
35507;BME280;36461;52.018;21.036;2023-03-03T14:35:59;100438.48;;;0.61;81.22
35507;BME280;36461;52.018;21.036;2023-03-03T14:41:20;100438.96;;;0.57;81.28
35507;BME280;36461;52.018;21.036;2023-03-03T14:44:34;100442.50;;;0.54;81.33
35507;BME280;36461;52.018;21.036;2023-03-03T14:49:38;100445.99;;;0.43;81.63
35507;BME280;36461;52.018;21.036;2023-03-03T14:52:28;100448.20;;;0.43;81.74
35507;BME280;36461;52.018;21.036;2023-03-03T14:54:59;100455.71;;;0.46;81.89
35507;BME280;36461;52.018;21.036;2023-03-03T15:05:29;100451.08;;;0.42;81.78
35507;BME280;36461;52.018;21.036;2023-03-03T15:10:40;100450.42;;;0.44;81.92
35507;BME280;36461;52.018;21.036;2023-03-03T15:15:56;100450.06;;;0.42;81.99
35507;BME280;36461;52.018;21.036;2023-03-03T15:18:29;100453.92;;;0.37;82.08
35507;BME280;36461;52.018;21.036;2023-03-03T15:21:09;100452.52;;;0.34;82.27
35507;BME280;36461;52.018;21.036;2023-03-03T15:26:32;100454.27;;;0.22;81.81
35507;BME280;36461;52.018;21.036;2023-03-03T15:29:11;100458.33;;;0.19;81.94
35507;BME280;36461;52.018;21.036;2023-03-03T15:34:37;100445.77;;;0.08;82.04
35507;BME280;36461;52.018;21.036;2023-03-03T15:37:23;100446.77;;;0.07;82.35
35507;BME280;36461;52.018;21.036;2023-03-03T15:42:49;100445.61;;;0.09;82.85
35507;BME280;36461;52.018;21.036;2023-03-03T15:48:05;100448.84;;;0.10;82.63
35507;BME280;36461;52.018;21.036;2023-03-03T16:04:47;100447.01;;;-0.02;82.48
35507;BME280;36461;52.018;21.036;2023-03-03T16:07:42;100441.20;;;-0.05;82.63
35507;BME280;36461;52.018;21.036;2023-03-03T16:24:42;100440.58;;;-0.13;83.08
35507;BME280;36461;52.018;21.036;2023-03-03T16:38:38;100436.20;;;-0.09;82.92
35507;BME280;36461;52.018;21.036;2023-03-03T16:41:14;100440.14;;;-0.07;82.99
35507;BME280;36461;52.018;21.036;2023-03-03T16:46:31;100435.52;;;-0.09;82.55
35507;BME280;36461;52.018;21.036;2023-03-03T16:49:07;100434.35;;;-0.09;83.04
35507;BME280;36461;52.018;21.036;2023-03-03T16:52:39;100436.26;;;-0.05;82.55
35507;BME280;36461;52.018;21.036;2023-03-03T16:54:43;100441.38;;;-0.03;82.64
35507;BME280;36461;52.018;21.036;2023-03-03T17:05:20;100436.19;;;-0.11;82.82
35507;BME280;36461;52.018;21.036;2023-03-03T17:10:51;100430.06;;;-0.11;82.63
35507;BME280;36461;52.018;21.036;2023-03-03T17:19:40;100432.05;;;-0.15;82.61
35507;BME280;36461;52.018;21.036;2023-03-03T17:22:44;100426.95;;;-0.15;82.57
35507;BME280;36461;52.018;21.036;2023-03-03T18:01:03;100427.61;;;-0.17;82.60